createdAt,value
2022-12-27T00:04:08.371Z,8.10
2022-12-27T00:09:12.046Z,6.90
2022-12-27T00:14:15.598Z,8.30
2022-12-27T00:19:20.718Z,7.27
2022-12-27T00:24:24.201Z,8.10
2022-12-27T00:29:28.024Z,6.73
2022-12-27T00:34:32.929Z,5.90
2022-12-27T00:39:36.588Z,6.87
2022-12-27T00:44:40.261Z,9.13
2022-12-27T00:49:45.309Z,8.93
2022-12-27T00:54:48.808Z,7.60
2022-12-27T00:59:52.380Z,6.47
2022-12-27T01:04:57.668Z,5.20
2022-12-27T01:10:01.262Z,5.73
2022-12-27T01:15:05.509Z,5.73
2022-12-27T01:20:11.332Z,5.65
2022-12-27T01:25:14.908Z,5.13
2022-12-27T01:30:18.639Z,6.27
2022-12-27T01:35:23.534Z,5.20
2022-12-27T01:40:27.458Z,5.10
2022-12-27T01:45:34.435Z,7.95
2022-12-27T01:50:43.098Z,8.33
2022-12-27T01:55:50.656Z,5.90
2022-12-27T02:00:54.946Z,9.50
2022-12-27T02:06:01.403Z,7.63
2022-12-27T02:11:06.047Z,7.37
2022-12-27T02:21:40.269Z,5.57
2022-12-27T02:26:54.541Z,7.40
2022-12-27T02:32:08.160Z,6.30
2022-12-27T02:37:13.881Z,5.93
2022-12-27T02:42:36.730Z,7.53
2022-12-27T02:47:59.813Z,6.00
2022-12-27T02:53:11.643Z,5.30
2022-12-27T02:58:28.254Z,5.60
2022-12-27T03:03:53.977Z,5.40
2022-12-27T03:09:03.344Z,6.43
2022-12-27T03:14:31.771Z,7.33
2022-12-27T03:20:01.097Z,8.80
2022-12-27T03:25:23.540Z,8.93
2022-12-27T03:30:44.313Z,6.07
2022-12-27T03:36:09.041Z,7.93
2022-12-27T03:41:36.466Z,9.27
2022-12-27T03:46:43.606Z,12.53
2022-12-27T03:51:53.015Z,9.37
2022-12-27T03:56:59.128Z,10.37
2022-12-27T04:02:03.314Z,7.90
2022-12-27T04:07:08.737Z,8.18
2022-12-27T04:12:29.766Z,8.73
2022-12-27T04:17:50.505Z,7.00
2022-12-27T04:23:12.687Z,6.20
2022-12-27T04:28:33.559Z,5.97
2022-12-27T04:33:54.238Z,5.83
2022-12-27T04:38:59.257Z,6.03
2022-12-27T04:44:19.749Z,6.67
2022-12-27T04:49:43.493Z,6.93
2022-12-27T04:55:00.532Z,8.87
2022-12-27T05:00:21.417Z,9.07
2022-12-27T05:05:25.635Z,11.33
2022-12-27T05:10:48.447Z,7.50
2022-12-27T05:15:51.858Z,7.13
2022-12-27T05:20:55.481Z,7.40
2022-12-27T05:26:00.365Z,8.97
2022-12-27T05:31:04.140Z,8.60
2022-12-27T05:36:08.991Z,10.80
2022-12-27T05:46:19.269Z,7.85
2022-12-27T05:51:23.384Z,6.50
2022-12-27T05:56:28.410Z,8.68
2022-12-27T06:01:32.245Z,8.47
2022-12-27T06:06:35.887Z,9.80
2022-12-27T06:11:41.082Z,7.03
2022-12-27T06:16:44.981Z,10.53
2022-12-27T06:21:48.762Z,8.60
2022-12-27T06:26:53.994Z,11.80
2022-12-27T06:31:57.720Z,8.23
2022-12-27T06:37:01.513Z,8.50
2022-12-27T06:42:06.743Z,9.30
2022-12-27T06:47:10.434Z,9.47
2022-12-27T06:52:14.121Z,9.10
2022-12-27T06:57:19.148Z,9.83
2022-12-27T07:02:22.631Z,9.90
2022-12-27T07:07:26.109Z,9.70
2022-12-27T07:12:36.588Z,16.73
2022-12-27T07:17:41.367Z,12.43
2022-12-27T07:22:44.764Z,12.65
2022-12-27T07:27:49.956Z,11.43
2022-12-27T07:32:53.434Z,13.83
2022-12-27T07:37:57.171Z,11.40
2022-12-27T07:43:01.999Z,13.20
2022-12-27T07:48:06.109Z,12.03
2022-12-27T07:53:09.585Z,12.82
2022-12-27T07:58:14.758Z,11.07
2022-12-27T08:03:19.332Z,12.87
2022-12-27T08:08:25.182Z,12.40
2022-12-27T08:13:30.095Z,12.53
2022-12-27T08:18:33.731Z,12.70
2022-12-27T08:23:37.290Z,13.03
2022-12-27T08:28:42.596Z,14.07
2022-12-27T08:33:46.060Z,13.10
2022-12-27T08:38:49.682Z,13.43
2022-12-27T08:43:54.609Z,13.07
2022-12-27T08:48:58.305Z,13.30
2022-12-27T08:54:01.775Z,9.20
2022-12-27T08:59:08.011Z,11.10
2022-12-27T09:04:11.504Z,11.90
2022-12-27T09:09:15.887Z,13.33
2022-12-27T09:14:21.591Z,14.60
2022-12-27T09:19:25.263Z,13.73
2022-12-27T09:24:28.746Z,14.30
2022-12-27T09:29:33.715Z,16.17
2022-12-27T09:34:37.195Z,14.17
2022-12-27T09:39:40.843Z,15.67
2022-12-27T09:44:52.069Z,12.77
2022-12-27T09:49:59.100Z,13.33
2022-12-27T09:55:08.034Z,17.10
2022-12-27T10:00:18.270Z,15.68
2022-12-27T10:05:24.042Z,16.97
2022-12-27T10:10:42.069Z,16.40
2022-12-27T10:15:52.546Z,16.48
2022-12-27T10:21:03.586Z,25.43
2022-12-27T10:26:13.350Z,14.53
2022-12-27T10:31:20.676Z,15.90
2022-12-27T10:36:26.728Z,14.90
2022-12-27T10:41:41.377Z,15.35
2022-12-27T10:46:53.323Z,17.90
2022-12-27T10:51:59.951Z,15.57
2022-12-27T10:57:19.937Z,13.87
2022-12-27T11:02:24.841Z,14.50
2022-12-27T11:07:33.920Z,15.63
2022-12-27T11:12:37.948Z,16.60
2022-12-27T11:17:46.711Z,20.80
2022-12-27T11:22:53.696Z,18.88
2022-12-27T11:28:01.952Z,17.23
2022-12-27T11:33:22.583Z,15.70
2022-12-27T11:38:30.862Z,20.33
2022-12-27T11:43:37.535Z,19.60
2022-12-27T11:48:47.075Z,20.73
2022-12-27T11:54:15.041Z,21.23
2022-12-27T11:59:52.411Z,21.67
2022-12-27T12:05:46.013Z,22.87
2022-12-27T12:10:56.188Z,21.97
2022-12-27T12:16:22.699Z,24.57
2022-12-27T12:21:27.637Z,22.43
2022-12-27T12:26:38.579Z,21.40
2022-12-27T12:32:07.035Z,26.17
2022-12-27T12:37:19.123Z,26.53
2022-12-27T12:42:31.086Z,30.03
2022-12-27T12:47:55.460Z,21.07
2022-12-27T12:53:20.427Z,24.33
2022-12-27T12:58:43.795Z,26.60
2022-12-27T13:04:12.296Z,28.80
2022-12-27T13:09:28.103Z,29.13
2022-12-27T13:14:54.882Z,29.73
2022-12-27T13:20:24.994Z,27.47
2022-12-27T13:25:38.831Z,29.77
2022-12-27T13:30:55.329Z,30.27
2022-12-27T13:36:12.315Z,31.02
2022-12-27T13:41:30.991Z,33.93
2022-12-27T13:46:55.064Z,29.63
2022-12-27T13:52:07.688Z,28.93
2022-12-27T13:57:35.532Z,28.63
2022-12-27T14:03:19.480Z,27.57
2022-12-27T14:08:34.510Z,25.97
2022-12-27T14:18:58.828Z,25.60
2022-12-27T14:24:18.625Z,28.50
2022-12-27T14:30:00.184Z,27.50
2022-12-27T14:35:31.828Z,28.00
2022-12-27T14:41:11.707Z,25.47
2022-12-27T14:46:38.832Z,27.43
2022-12-27T14:52:13.439Z,25.27
2022-12-27T14:57:33.350Z,26.90
2022-12-27T15:03:09.447Z,25.60
2022-12-27T15:08:41.406Z,26.40
2022-12-27T15:14:01.681Z,27.27
2022-12-27T15:19:24.208Z,25.13
2022-12-27T15:24:41.041Z,25.45
2022-12-27T15:30:09.394Z,26.88
2022-12-27T15:35:35.301Z,24.00
2022-12-27T15:40:50.445Z,27.73
2022-12-27T15:46:09.858Z,27.58
2022-12-27T15:51:21.112Z,32.20
2022-12-27T15:56:42.236Z,27.33
2022-12-27T16:01:46.644Z,25.47
2022-12-27T16:06:54.836Z,24.83
2022-12-27T16:12:06.294Z,26.17
2022-12-27T16:17:36.130Z,24.75
2022-12-27T16:22:43.341Z,23.83
2022-12-27T16:27:56.569Z,25.35
2022-12-27T16:33:01.117Z,25.00
2022-12-27T16:38:05.345Z,25.27
2022-12-27T16:43:42.997Z,25.02
2022-12-27T16:49:07.052Z,21.20
2022-12-27T16:54:24.876Z,26.85
2022-12-27T17:00:02.609Z,24.05
2022-12-27T17:05:34.267Z,23.23
2022-12-27T17:11:03.095Z,23.85
2022-12-27T17:16:20.330Z,24.25
2022-12-27T17:21:30.490Z,20.85
2022-12-27T17:27:09.313Z,25.25
2022-12-27T17:32:24.976Z,22.58
2022-12-27T17:37:37.002Z,24.83
2022-12-27T17:43:10.869Z,20.10
2022-12-27T17:48:25.544Z,22.27
2022-12-27T17:53:46.928Z,21.98
2022-12-27T17:58:52.697Z,21.15
2022-12-27T18:04:02.143Z,22.98
2022-12-27T18:09:07.194Z,21.85
2022-12-27T18:14:15.292Z,25.42
2022-12-27T18:19:22.081Z,20.10
2022-12-27T18:24:28.537Z,25.90
2022-12-27T18:29:32.581Z,22.27
2022-12-27T18:34:42.897Z,23.07
2022-12-27T18:39:52.025Z,23.85
2022-12-27T18:44:59.282Z,24.80
2022-12-27T18:50:07.123Z,20.92
2022-12-27T18:55:18.021Z,21.88
2022-12-27T19:00:25.253Z,23.02
2022-12-27T19:05:31.321Z,21.77
2022-12-27T19:10:35.071Z,24.85
2022-12-27T19:15:43.447Z,24.58
2022-12-27T19:20:56.032Z,27.20
2022-12-27T19:26:02.095Z,22.00
2022-12-27T19:31:09.768Z,23.10
2022-12-27T19:36:15.428Z,26.77
2022-12-27T19:41:19.033Z,26.30
2022-12-27T19:46:28.511Z,25.00
2022-12-27T19:51:36.636Z,25.13
2022-12-27T19:56:40.258Z,27.13
2022-12-27T20:01:44.898Z,22.88
2022-12-27T20:06:50.776Z,24.63
2022-12-27T20:11:54.590Z,24.55
2022-12-27T20:16:58.425Z,24.70
2022-12-27T20:22:03.343Z,25.05
2022-12-27T20:32:10.601Z,24.90
2022-12-27T20:37:19.681Z,23.13
2022-12-27T20:42:26.535Z,22.77
2022-12-27T20:47:29.982Z,23.37
2022-12-27T20:52:38.627Z,22.60
2022-12-27T20:57:42.745Z,20.08
2022-12-27T21:02:47.827Z,19.03
2022-12-27T21:07:54.234Z,21.48
2022-12-27T21:18:00.768Z,21.67
2022-12-27T21:23:05.737Z,22.48
2022-12-27T21:28:09.429Z,22.38
2022-12-27T21:33:13.028Z,24.05
2022-12-27T21:38:17.930Z,22.92
2022-12-27T21:48:26.228Z,25.92
2022-12-27T21:53:30.996Z,24.73
2022-12-27T21:58:35.231Z,23.27
2022-12-27T22:03:43.822Z,22.23
2022-12-27T22:08:50.530Z,23.00
2022-12-27T22:13:54.156Z,27.63
2022-12-27T22:18:58.134Z,22.45
2022-12-27T22:24:04.026Z,23.73
2022-12-27T22:29:07.908Z,23.42
2022-12-27T22:34:11.600Z,23.43
2022-12-27T22:39:16.461Z,22.48
2022-12-27T22:49:23.084Z,28.20
2022-12-27T22:55:03.224Z,23.70
2022-12-27T23:04:55.240Z,22.92
2022-12-27T23:10:00.260Z,24.00
2022-12-27T23:15:03.967Z,24.60
2022-12-27T23:20:08.991Z,23.02
2022-12-27T23:25:14.015Z,23.58
2022-12-27T23:30:17.715Z,22.85
2022-12-27T23:35:21.117Z,22.70
2022-12-27T23:40:26.105Z,20.90
2022-12-27T23:50:32.455Z,23.48
2022-12-27T23:55:37.378Z,23.35
